Time;durP1;ratioP1;P1;durP2;ratioP2;P2;SDS_P1;SDS_P2;PMS_P1;PMS_P2;Temp;Humidity;BMP_temperature;BMP_pressure;BME280_temperature;BME280_humidity;BME280_pressure;Samples;Min_cycle;Max_cycle;Signal;HPM_P1;HPM_P2
2023/09/26 00:00:05;;;;;;;9.50;6.60;;;;;;;-145.69;75.40;52125.56;5115574;27;20256;-79
2023/09/26 00:02:32;;;;;;;9.07;6.80;;;;;;;-145.69;75.15;52123.56;5115417;28;20201;-79
2023/09/26 00:04:59;;;;;;;20.17;7.03;;;;;;;-145.69;75.61;52105.75;5135357;27;20204;-79
2023/09/26 00:07:27;;;;;;;14.40;7.97;;;;;;;-145.69;75.61;52139.41;5135788;27;20205;-80
2023/09/26 00:09:55;;;;;;;12.20;6.63;;;;;;;-145.69;75.09;52123.56;5135703;27;20192;-80
2023/09/26 00:12:22;;;;;;;15.57;6.33;;;;;;;-145.69;74.41;52147.34;5135792;27;20255;-79
2023/09/26 00:14:49;;;;;;;13.30;6.53;;;;;;;-145.69;75.08;52143.38;5125314;27;20192;-79
2023/09/26 00:17:17;;;;;;;12.47;6.70;;;;;;;-145.69;73.95;52119.63;5135828;27;20201;-80
2023/09/26 00:19:43;;;;;;;10.03;7.33;;;;;;;-145.69;74.57;52139.41;5135223;27;20240;-80
2023/09/26 00:22:10;;;;;;;12.73;7.10;;;;;;;-145.69;75.31;52171.09;5135333;27;20211;-80
2023/09/26 00:24:38;;;;;;;12.77;7.20;;;;;;;-145.69;75.20;52123.56;5135420;27;20212;-79
2023/09/26 00:27:04;;;;;;;14.63;7.43;;;;;;;-145.69;76.07;52139.41;5124728;27;20231;-80
2023/09/26 00:29:31;;;;;;;13.53;7.50;;;;;;;-145.69;75.00;52119.63;5135129;27;20239;-79
2023/09/26 00:31:58;;;;;;;14.53;7.90;;;;;;;-145.69;75.24;52135.47;5135383;27;20203;-79
2023/09/26 00:34:25;;;;;;;13.20;7.30;;;;;;;-145.69;74.68;52159.22;5135102;27;20227;-79
2023/09/26 00:36:51;;;;;;;13.07;7.93;;;;;;;-145.69;74.48;52113.66;5135440;27;20579;-79
2023/09/26 00:39:18;;;;;;;11.70;6.97;;;;;;;-145.69;75.19;52157.25;5134721;27;20196;-79
2023/09/26 00:41:46;;;;;;;15.77;7.13;;;;;;;-145.69;75.40;52119.63;5134551;27;20200;-79
2023/09/26 00:44:12;;;;;;;11.07;7.13;;;;;;;-145.69;74.34;52133.47;5135161;27;20255;-79
2023/09/26 00:46:39;;;;;;;12.67;6.37;;;;;;;-145.69;74.89;52119.63;5118512;27;20193;-79
2023/09/26 00:49:06;;;;;;;13.67;6.93;;;;;;;-145.69;74.58;52135.47;5114412;27;20625;-79
2023/09/26 00:51:33;;;;;;;11.87;7.17;;;;;;;-145.69;74.23;52149.31;5114262;28;20656;-79
2023/09/26 00:54:00;;;;;;;11.37;7.17;;;;;;;-145.69;75.53;52135.47;5113188;28;20228;-79
2023/09/26 00:56:27;;;;;;;13.43;7.33;;;;;;;-145.69;75.81;52139.41;5120921;27;20189;-78
2023/09/26 00:58:55;;;;;;;16.57;8.07;;;;;;;-145.69;75.50;52115.66;5132534;27;20219;-78
2023/09/26 01:01:25;;;;;;;12.00;7.07;;;;;;;-145.69;74.04;52111.69;5114163;28;20197;-80
2023/09/26 01:03:51;;;;;;;13.30;8.17;;;;;;;-145.69;74.54;52127.53;5112453;28;20240;-79
2023/09/26 01:06:19;;;;;;;12.33;7.90;;;;;;;-145.69;75.08;52145.34;5112972;28;20205;-80
2023/09/26 01:08:45;;;;;;;11.17;6.67;;;;;;;-145.69;74.32;52169.13;5129186;27;20209;-80
2023/09/26 01:11:13;;;;;;;14.50;7.50;;;;;;;-145.69;74.26;52157.25;5134597;27;20201;-79
2023/09/26 01:13:39;;;;;;;12.27;7.13;;;;;;;-145.69;74.22;52143.38;5129978;27;20675;-79
2023/09/26 01:16:28;;;;;;;14.03;7.60;;;;;;;-145.69;73.90;52119.63;5134136;27;20196;-79
2023/09/26 01:18:55;;;;;;;9.47;6.83;;;;;;;-145.69;74.18;52151.28;5133532;27;20229;-79
2023/09/26 01:21:22;;;;;;;12.63;7.67;;;;;;;-145.69;74.75;52131.50;5133527;27;20200;-79
2023/09/26 01:23:55;;;;;;;12.63;7.57;;;;;;;-145.69;75.70;52135.47;5134390;27;20246;-79
2023/09/26 01:26:22;;;;;;;11.83;7.47;;;;;;;-145.69;75.23;52147.34;5127940;27;20242;-79
2023/09/26 01:28:48;;;;;;;13.73;7.03;;;;;;;-145.69;76.02;52151.28;5113416;28;20213;-79
2023/09/26 01:31:15;;;;;;;13.20;6.67;;;;;;;-145.69;75.45;52179.03;5117343;27;20196;-79
2023/09/26 01:33:42;;;;;;;14.50;7.83;;;;;;;-145.69;75.81;52145.34;5112000;28;20684;-79
2023/09/26 01:36:08;;;;;;;10.30;6.87;;;;;;;-145.69;74.74;52165.16;5113453;28;20599;-79
2023/09/26 01:38:35;;;;;;;12.20;7.20;;;;;;;-145.69;74.04;52151.28;5129939;27;20203;-80
2023/09/26 01:41:03;;;;;;;13.37;7.97;;;;;;;-145.69;76.17;52133.47;5134017;27;20567;-80
2023/09/26 01:43:29;;;;;;;14.87;9.03;;;;;;;-145.69;77.07;52157.25;5115341;27;20205;-79
2023/09/26 01:45:56;;;;;;;13.13;8.10;;;;;;;-145.69;75.56;52165.16;5121580;27;20200;-78
2023/09/26 01:48:22;;;;;;;12.03;7.50;;;;;;;-145.69;74.64;52163.19;5134017;27;20555;-79
2023/09/26 01:50:48;;;;;;;14.47;7.57;;;;;;;-145.69;75.05;52159.22;5133695;27;20197;-79
2023/09/26 01:53:15;;;;;;;15.63;7.53;;;;;;;-145.69;74.79;52155.25;5133532;27;20579;-79
2023/09/26 01:55:42;;;;;;;10.93;6.40;;;;;;;-145.69;74.41;52163.19;5133486;27;20200;-79
2023/09/26 01:58:09;;;;;;;10.30;5.87;;;;;;;-145.69;73.83;52137.44;5113537;27;20197;-79
2023/09/26 02:00:36;;;;;;;13.10;7.30;;;;;;;-145.69;73.57;52177.03;5113562;28;20204;-79
2023/09/26 02:03:03;;;;;;;14.73;7.13;;;;;;;-145.69;75.15;52111.69;5113374;28;20223;-80
2023/09/26 02:05:29;;;;;;;15.57;8.23;;;;;;;-145.69;75.42;52139.41;5113357;28;20608;-79
2023/09/26 02:07:56;;;;;;;13.43;7.57;;;;;;;-145.69;75.45;52129.50;5123990;28;20197;-79
2023/09/26 02:10:22;;;;;;;15.03;8.10;;;;;;;-145.69;76.07;52173.09;5133707;27;20205;-79
2023/09/26 02:12:51;;;;;;;16.00;8.47;;;;;;;-145.69;76.07;52161.19;5133674;27;20196;-79
2023/09/26 02:15:19;;;;;;;15.00;8.90;;;;;;;-145.69;75.77;52159.22;5133063;27;20552;-78
2023/09/26 02:17:45;;;;;;;16.37;7.90;;;;;;;-145.69;74.68;52155.25;5133634;27;20193;-80
2023/09/26 02:20:15;;;;;;;16.67;9.50;;;;;;;-145.69;76.35;52153.28;5132492;28;20236;-79
2023/09/26 02:22:43;;;;;;;16.93;9.53;;;;;;;-145.69;76.07;52155.25;5133419;27;20200;-79
2023/09/26 02:25:10;;;;;;;14.43;8.63;;;;;;;-145.69;76.64;52190.91;5113449;27;20213;-79
2023/09/26 02:27:37;;;;;;;17.97;9.07;;;;;;;-145.69;77.09;52167.13;5124709;28;20196;-79
2023/09/26 02:30:04;;;;;;;16.80;9.10;;;;;;;-145.69;76.08;52167.13;5133784;27;20205;-79
2023/09/26 02:32:33;;;;;;;22.30;10.23;;;;;;;-145.69;76.71;52169.13;5133572;27;20588;-80
2023/09/26 02:34:59;;;;;;;22.97;10.13;;;;;;;-145.69;76.12;52141.41;5125308;27;20221;-80
2023/09/26 02:37:26;;;;;;;15.13;8.50;;;;;;;-145.69;74.92;52151.28;5117708;28;20670;-79
2023/09/26 02:39:55;;;;;;;20.47;10.37;;;;;;;-145.69;75.15;52171.09;5133091;27;20204;-80
2023/09/26 02:42:21;;;;;;;22.30;10.30;;;;;;;-145.69;75.66;52151.28;5133341;27;20197;-79
2023/09/26 02:44:48;;;;;;;16.07;9.10;;;;;;;-145.69;74.87;52143.38;5133648;27;20212;-80
2023/09/26 02:47:15;;;;;;;16.70;9.30;;;;;;;-145.69;74.54;52147.34;5133471;27;20249;-79
2023/09/26 02:49:43;;;;;;;16.63;9.57;;;;;;;-145.69;75.36;52167.13;5133066;27;20196;-79
2023/09/26 02:52:09;;;;;;;19.87;10.37;;;;;;;-145.69;76.12;52179.03;5133649;27;20200;-79
2023/09/26 02:54:36;;;;;;;18.00;9.37;;;;;;;-145.69;74.86;52155.25;5133237;27;20220;-80
2023/09/26 02:57:02;;;;;;;19.33;11.00;;;;;;;-145.69;75.75;52161.19;5124800;27;20190;-80
2023/09/26 02:59:29;;;;;;;17.37;9.97;;;;;;;-145.69;74.76;52139.41;5112586;28;20204;-79
2023/09/26 03:01:56;;;;;;;20.17;9.93;;;;;;;-145.69;74.40;52167.13;5112792;28;20204;-79
2023/09/26 03:04:23;;;;;;;20.80;10.70;;;;;;;-145.69;75.38;52161.19;5114902;28;20250;-79
2023/09/26 03:06:51;;;;;;;23.27;11.17;;;;;;;-145.69;75.40;52151.28;5136604;27;20192;-79
2023/09/26 03:09:17;;;;;;;19.77;9.63;;;;;;;-145.69;74.74;52184.97;5095999;28;20203;-78
2023/09/26 03:11:44;;;;;;;23.63;10.60;;;;;;;-145.69;76.04;52167.13;5095944;28;20561;-79
2023/09/26 03:14:10;;;;;;;22.90;11.30;;;;;;;-145.69;75.91;52165.16;5095928;28;20258;-79
2023/09/26 03:16:38;;;;;;;24.93;12.03;;;;;;;-145.69;77.43;52153.28;5095963;28;20202;-79
2023/09/26 03:19:05;;;;;;;24.83;12.23;;;;;;;-145.69;77.79;52157.25;5095686;28;20226;-80
2023/09/26 03:21:32;;;;;;;24.83;12.60;;;;;;;-145.69;77.12;52159.22;5095955;28;20198;-80
2023/09/26 03:24:00;;;;;;;27.17;12.57;;;;;;;-145.69;75.92;52143.38;5095799;28;20568;-79
2023/09/26 03:26:27;;;;;;;23.17;12.37;;;;;;;-145.69;76.21;52182.97;5097684;27;20221;-79
2023/09/26 03:28:53;;;;;;;23.67;11.83;;;;;;;-145.69;75.84;52153.28;5098317;28;20201;-79
2023/09/26 03:31:20;;;;;;;26.83;13.37;;;;;;;-145.69;76.21;52179.03;5095562;28;20201;-79
2023/09/26 03:33:46;;;;;;;28.03;12.57;;;;;;;-145.69;76.02;52167.13;5095137;28;20222;-79
2023/09/26 03:36:13;;;;;;;25.13;12.47;;;;;;;-145.69;76.19;52182.97;5097077;27;20676;-79
2023/09/26 03:38:39;;;;;;;23.93;12.20;;;;;;;-145.69;75.13;52181.00;5119443;27;20194;-79
2023/09/26 03:41:08;;;;;;;23.07;12.13;;;;;;;-145.69;75.77;52145.34;5115691;27;20200;-79
2023/09/26 03:43:35;;;;;;;20.70;11.03;;;;;;;-145.69;74.99;52184.97;5115703;28;20545;-79
2023/09/26 03:46:05;;;;;;;25.17;12.50;;;;;;;-145.69;74.82;52175.06;5115720;28;20205;-80
2023/09/26 03:48:32;;;;;;;23.90;11.83;;;;;;;-145.69;73.60;52149.31;5115742;28;20202;-78
2023/09/26 03:51:07;;;;;;;25.77;11.50;;;;;;;-145.69;74.34;52190.91;5115338;28;20197;-78
2023/09/26 03:53:34;;;;;;;28.20;13.53;;;;;;;-145.69;75.12;52182.97;5115438;28;20224;-79
2023/09/26 03:56:00;;;;;;;34.07;14.43;;;;;;;-145.69;76.12;52186.94;5115728;28;20322;-78
2023/09/26 03:58:28;;;;;;;31.67;14.03;;;;;;;-145.69;74.88;52177.03;5128798;27;20281;-79
2023/09/26 04:00:54;;;;;;;20.40;11.03;;;;;;;-145.69;73.97;52163.19;5135629;27;20193;-79
2023/09/26 04:03:21;;;;;;;25.60;12.30;;;;;;;-145.69;74.17;52163.19;5136139;27;20567;-79
2023/09/26 04:05:48;;;;;;;27.23;12.00;;;;;;;-145.69;74.98;52190.91;5125926;27;20200;-78
2023/09/26 04:08:15;;;;;;;30.17;13.27;;;;;;;-145.69;75.28;52175.06;5127965;27;20246;-79
2023/09/26 04:10:42;;;;;;;19.00;9.97;;;;;;;-145.69;74.12;52179.03;5135174;27;20197;-79
2023/09/26 04:13:08;;;;;;;23.13;12.20;;;;;;;-145.69;74.16;52167.13;5135582;27;20207;-79
2023/09/26 04:15:38;;;;;;;34.40;13.80;;;;;;;-145.69;76.04;52171.09;5134817;27;20221;-79
2023/09/26 04:18:06;;;;;;;31.63;14.40;;;;;;;-145.69;75.81;52147.34;5135398;27;20564;-79
2023/09/26 04:20:35;;;;;;;32.03;14.47;;;;;;;-145.69;74.89;52186.94;5124754;27;20193;-79
2023/09/26 04:23:01;;;;;;;27.33;14.07;;;;;;;-145.69;74.50;52165.16;5094421;28;20205;-79
2023/09/26 04:25:29;;;;;;;30.87;13.90;;;;;;;-145.69;74.01;52184.97;5094363;28;20568;-80
2023/09/26 04:27:56;;;;;;;31.60;14.40;;;;;;;-145.69;75.13;52167.13;5113170;27;20540;-79
2023/09/26 04:30:23;;;;;;;36.10;15.00;;;;;;;-145.69;76.11;52194.88;5114735;27;20194;-79
2023/09/26 04:32:51;;;;;;;35.83;15.70;;;;;;;-145.69;76.75;52159.22;5114187;28;20212;-79
2023/09/26 04:35:17;;;;;;;35.30;15.13;;;;;;;-145.69;76.07;52163.19;5114578;28;20221;-79
2023/09/26 04:37:44;;;;;;;33.03;14.63;;;;;;;-145.69;75.85;52167.13;5114408;28;20660;-79
2023/09/26 04:40:11;;;;;;;35.80;14.60;;;;;;;-145.69;75.28;52145.34;5114203;28;20594;-79
2023/09/26 04:42:40;;;;;;;35.43;14.30;;;;;;;-145.69;77.66;52157.25;5114810;28;20210;-79
2023/09/26 04:45:08;;;;;;;32.50;14.73;;;;;;;-145.69;77.65;52175.06;5114493;28;20204;-80
2023/09/26 04:47:35;;;;;;;35.73;15.63;;;;;;;-145.69;76.35;52163.19;5114493;28;20193;-79
2023/09/26 04:50:03;;;;;;;38.60;16.13;;;;;;;-145.69;76.65;52202.78;5114550;28;20284;-79
2023/09/26 04:52:31;;;;;;;41.40;15.63;;;;;;;-145.69;77.64;52186.94;5115703;27;20667;-79
2023/09/26 04:54:57;;;;;;;33.23;15.87;;;;;;;-145.69;76.04;52171.09;5128905;27;20217;-79
2023/09/26 04:57:24;;;;;;;31.60;15.03;;;;;;;-145.69;76.67;52135.47;5121945;27;20747;-80
2023/09/26 04:59:50;;;;;;;38.63;16.47;;;;;;;-145.69;75.88;52169.13;5134904;27;20196;-80
2023/09/26 05:02:16;;;;;;;44.03;15.70;;;;;;;-145.69;75.92;52151.28;5134202;27;20636;-79
2023/09/26 05:04:45;;;;;;;32.77;14.03;;;;;;;-145.69;75.84;52173.09;5134496;27;20200;-80
2023/09/26 05:07:14;;;;;;;33.73;15.53;;;;;;;-145.69;76.17;52173.09;5113224;27;20212;-79
2023/09/26 05:09:41;;;;;;;34.43;14.60;;;;;;;-145.69;74.86;52190.91;5113825;28;20201;-80
2023/09/26 05:12:07;;;;;;;29.33;14.00;;;;;;;-145.69;75.14;52192.88;5113516;28;20690;-80
2023/09/26 05:14:34;;;;;;;29.33;13.23;;;;;;;-145.69;74.68;52143.38;5113883;28;20225;-80
2023/09/26 05:17:00;;;;;;;26.80;12.57;;;;;;;-145.69;75.33;52167.13;5113870;28;20204;-80
2023/09/26 05:19:27;;;;;;;28.80;14.30;;;;;;;-145.69;75.74;52161.19;5113788;28;20225;-80
2023/09/26 05:21:53;;;;;;;31.90;14.70;;;;;;;-145.69;76.66;52186.94;5111959;28;20776;-80
2023/09/26 05:24:22;;;;;;;27.63;13.30;;;;;;;-145.69;76.05;52179.03;5114014;28;20197;-79
2023/09/26 05:26:48;;;;;;;33.80;14.07;;;;;;;-145.69;75.80;52186.94;5115819;27;20239;-80
2023/09/26 05:29:15;;;;;;;29.20;13.63;;;;;;;-145.69;76.67;52186.94;5129194;27;20201;-80
2023/09/26 05:31:41;;;;;;;30.87;13.90;;;;;;;-145.69;76.04;52169.13;5113562;28;20568;-80
2023/09/26 05:34:08;;;;;;;39.23;16.40;;;;;;;-145.69;77.17;52202.78;5116427;27;20229;-80
2023/09/26 05:36:34;;;;;;;32.97;15.83;;;;;;;-145.69;75.67;52159.22;5133216;27;20189;-80
2023/09/26 05:39:01;;;;;;;39.30;14.70;;;;;;;-145.69;76.80;52165.16;5134028;27;20193;-80
2023/09/26 05:41:29;;;;;;;40.73;15.33;;;;;;;-145.69;77.45;52200.81;5133984;27;20196;-80
2023/09/26 05:43:56;;;;;;;41.63;15.50;;;;;;;-145.69;77.64;52163.19;5134074;27;20278;-80
2023/09/26 05:46:22;;;;;;;34.90;15.80;;;;;;;-145.69;77.94;52179.03;5134133;27;20284;-80
2023/09/26 05:48:50;;;;;;;37.70;17.10;;;;;;;-145.69;78.70;52157.25;5134004;27;20200;-79
2023/09/26 05:51:16;;;;;;;34.57;15.57;;;;;;;-145.69;78.41;52155.25;5133521;27;20270;-79
2023/09/26 05:53:43;;;;;;;32.67;13.50;;;;;;;-145.69;77.34;52194.88;5119680;27;20198;-80
2023/09/26 05:56:09;;;;;;;31.40;13.93;;;;;;;-145.69;77.45;52186.94;5130759;27;20268;-80
2023/09/26 05:58:37;;;;;;;33.67;14.57;;;;;;;-145.69;77.30;52186.94;5115908;27;20193;-80
2023/09/26 06:01:08;;;;;;;29.30;14.37;;;;;;;-145.69;78.35;52155.25;5113221;28;20204;-79
2023/09/26 06:03:35;;;;;;;32.93;14.77;;;;;;;-145.69;78.96;52181.00;5111689;28;20213;-80
2023/09/26 06:06:02;;;;;;;33.63;14.97;;;;;;;-145.69;78.25;52159.22;5113208;28;20204;-79
2023/09/26 06:08:29;;;;;;;31.30;14.33;;;;;;;-145.69;78.41;52163.19;5113245;28;20288;-80
2023/09/26 06:10:55;;;;;;;32.53;14.50;;;;;;;-145.69;77.91;52171.09;5113317;28;20226;-79
2023/09/26 06:13:22;;;;;;;41.33;15.07;;;;;;;-145.69;77.90;52188.91;5123068;28;20196;-81
2023/09/26 06:15:50;;;;;;;33.00;14.77;;;;;;;-145.69;78.71;52198.81;5133507;27;20702;-80
2023/09/26 06:18:16;;;;;;;33.30;15.20;;;;;;;-145.69;78.60;52149.31;5126715;27;20300;-80
2023/09/26 06:20:44;;;;;;;38.40;15.40;;;;;;;-145.69;78.15;52186.94;5113047;28;20197;-80
2023/09/26 06:23:10;;;;;;;29.43;14.13;;;;;;;-145.69;78.80;52175.06;5112427;28;20208;-80
2023/09/26 06:25:37;;;;;;;30.27;13.77;;;;;;;-145.69;78.00;52147.34;5110357;28;20197;-80
2023/09/26 06:28:04;;;;;;;25.43;12.40;;;;;;;-145.69;77.62;52182.97;5118460;28;20533;-80
2023/09/26 06:30:30;;;;;;;24.57;10.63;;;;;;;-145.69;77.44;52159.22;5133184;27;20200;-80
2023/09/26 06:32:58;;;;;;;21.40;11.37;;;;;;;-145.69;78.04;52179.03;5133153;27;20208;-80
2023/09/26 06:35:25;;;;;;;24.97;11.27;;;;;;;-145.69;77.86;52155.25;5133309;27;20231;-80
2023/09/26 06:37:51;;;;;;;21.57;10.93;;;;;;;-145.69;77.62;52153.28;5133533;27;20286;-80
2023/09/26 06:40:18;;;;;;;19.43;9.37;;;;;;;-145.69;77.73;52155.25;5137517;27;20204;-79
2023/09/26 06:42:44;;;;;;;24.93;10.60;;;;;;;-145.69;78.56;52169.13;5137321;27;20566;-80
2023/09/26 06:45:12;;;;;;;21.23;11.03;;;;;;;-145.69;77.99;52161.19;5137393;27;20209;-81
2023/09/26 06:47:39;;;;;;;19.80;9.00;;;;;;;-145.69;77.84;52137.44;5136287;27;20226;-80
2023/09/26 06:50:10;;;;;;;15.63;8.70;;;;;;;-145.69;77.76;52151.28;5116970;28;20193;-81
2023/09/26 06:52:36;;;;;;;16.10;8.73;;;;;;;-145.69;77.89;52155.25;5128563;27;20799;-80
2023/09/26 06:55:09;;;;;;;10.67;6.63;;;;;;;-145.69;78.04;52139.41;5135303;27;20220;-81
2023/09/26 06:57:36;;;;;;;18.43;9.20;;;;;;;-145.69;77.99;52155.25;5120630;27;20287;-80
2023/09/26 07:00:11;;;;;;;15.73;9.50;;;;;;;-145.69;77.74;52153.28;5116320;28;20560;-80
2023/09/26 07:02:39;;;;;;;14.63;8.80;;;;;;;-145.69;77.99;52149.31;5116681;27;20197;-80
2023/09/26 07:05:08;;;;;;;10.43;6.35;;;;;;;-145.69;77.88;52131.50;5116664;28;20261;-80
2023/09/26 07:07:35;;;;;;;10.37;6.13;;;;;;;-145.69;77.89;52155.25;5116553;28;20209;-80
2023/09/26 07:10:01;;;;;;;11.07;5.63;;;;;;;-145.69;77.92;52135.47;5116436;28;20722;-80
2023/09/26 07:12:28;;;;;;;9.10;5.70;;;;;;;-145.69;77.59;52139.41;5116239;28;20289;-80
2023/09/26 07:14:56;;;;;;;9.90;5.60;;;;;;;-145.69;77.71;52159.22;5115920;27;20767;-80
2023/09/26 07:17:23;;;;;;;9.30;6.18;;;;;;;-145.69;77.52;52143.38;5116245;27;20197;-80
2023/09/26 07:19:49;;;;;;;10.80;5.90;;;;;;;-145.69;77.73;52117.63;5115905;28;20265;-80
2023/09/26 07:22:17;;;;;;;14.68;7.18;;;;;;;-145.69;77.64;52135.47;5116177;28;20198;-80
2023/09/26 07:24:48;;;;;;;17.58;6.85;;;;;;;-145.69;77.27;52129.50;5116145;28;20545;-80
2023/09/26 07:27:15;;;;;;;9.38;5.22;;;;;;;-145.69;77.54;52135.47;5129556;27;20221;-80
2023/09/26 07:29:45;;;;;;;9.68;5.80;;;;;;;-145.69;77.18;52131.50;5116381;28;20198;-80
2023/09/26 07:32:12;;;;;;;12.00;5.20;;;;;;;-145.69;77.93;52133.47;5115731;28;20707;-80
2023/09/26 07:34:38;;;;;;;14.68;6.20;;;;;;;-145.69;77.78;52153.28;5116014;28;20204;-80
2023/09/26 07:37:05;;;;;;;10.13;5.78;;;;;;;-145.69;78.38;52115.66;5111598;27;20325;-80
2023/09/26 07:39:33;;;;;;;11.18;6.18;;;;;;;-145.69;78.53;52103.78;5095602;28;20202;-80
2023/09/26 07:41:59;;;;;;;8.55;5.43;;;;;;;-145.69;78.40;52123.56;5095503;28;20198;-80
2023/09/26 07:44:26;;;;;;;10.98;5.78;;;;;;;-145.69;78.15;52131.50;5107936;27;20197;-80
2023/09/26 07:46:52;;;;;;;12.23;6.13;;;;;;;-145.69;78.14;52119.63;5136143;27;20708;-80
2023/09/26 07:49:19;;;;;;;10.45;6.38;;;;;;;-145.69;78.22;52131.50;5136216;27;20197;-79
2023/09/26 07:51:46;;;;;;;11.43;5.47;;;;;;;-145.69;77.98;52127.53;5136038;27;20559;-80
2023/09/26 07:54:13;;;;;;;10.30;5.30;;;;;;;-145.69;77.49;52139.41;5135776;27;20726;-80
2023/09/26 07:56:40;;;;;;;9.88;4.68;;;;;;;-145.69;77.15;52127.53;5134906;27;20248;-80
2023/09/26 07:59:07;;;;;;;7.55;4.80;;;;;;;-145.69;77.69;52115.66;5135531;27;20193;-79
2023/09/26 08:01:34;;;;;;;10.63;5.15;;;;;;;-145.69;77.43;52089.91;5134218;27;20189;-81
2023/09/26 08:04:01;;;;;;;6.60;4.13;;;;;;;-145.69;78.60;52115.66;5116204;27;20205;-80
2023/09/26 08:06:27;;;;;;;4.72;3.60;;;;;;;-145.69;79.17;52111.69;5125937;27;20200;-80
2023/09/26 08:08:54;;;;;;;5.38;3.60;;;;;;;-145.69;78.22;52115.66;5135533;27;20193;-80
2023/09/26 08:11:21;;;;;;;4.50;3.47;;;;;;;-145.69;77.97;52117.63;5135394;27;20330;-79
2023/09/26 08:13:49;;;;;;;11.30;4.53;;;;;;;-145.69;77.88;52129.50;5135519;27;20320;-80
2023/09/26 08:16:15;;;;;;;6.13;4.10;;;;;;;-145.69;78.28;52076.03;5135787;27;20315;-80
2023/09/26 08:18:42;;;;;;;7.85;5.57;;;;;;;-145.69;78.03;52087.94;5135856;27;20221;-80
2023/09/26 08:21:08;;;;;;;12.60;7.32;;;;;;;-145.69;78.05;52123.56;5135251;27;20564;-80
2023/09/26 08:23:35;;;;;;;8.98;6.72;;;;;;;-145.69;77.76;52123.56;5135695;27;20292;-81
2023/09/26 08:26:03;;;;;;;15.95;9.43;;;;;;;-145.69;77.47;52091.88;5129889;27;20217;-80
2023/09/26 08:28:31;;;;;;;12.68;7.97;;;;;;;-145.69;76.99;52103.78;5123818;27;20714;-80
2023/09/26 08:31:05;;;;;;;15.05;8.45;;;;;;;-145.69;76.95;52115.66;5128094;27;20196;-80
2023/09/26 08:33:31;;;;;;;12.32;7.90;;;;;;;-145.69;77.14;52109.72;5120299;27;20197;-80
2023/09/26 08:35:58;;;;;;;12.90;7.50;;;;;;;-145.69;76.17;52091.88;5129277;27;20219;-80
2023/09/26 08:38:24;;;;;;;14.30;8.07;;;;;;;-145.69;75.42;52089.91;5122447;27;20216;-80
2023/09/26 08:40:52;;;;;;;10.45;6.97;;;;;;;-145.69;76.09;52087.94;5114687;28;20284;-80
2023/09/26 08:43:24;;;;;;;9.43;7.25;;;;;;;-145.69;76.23;52117.63;5114676;28;20226;-80
2023/09/26 08:45:50;;;;;;;10.00;6.65;;;;;;;-145.69;77.17;52095.84;5134489;27;20199;-80
2023/09/26 08:48:19;;;;;;;10.80;7.18;;;;;;;-145.69;75.46;52095.84;5135030;27;20205;-80
2023/09/26 08:50:46;;;;;;;18.52;9.38;;;;;;;-145.69;75.18;52133.47;5134831;27;20437;-80
2023/09/26 08:53:13;;;;;;;13.30;7.72;;;;;;;-145.69;74.31;52105.75;5128197;27;20200;-81
2023/09/26 08:55:40;;;;;;;11.82;7.72;;;;;;;-145.69;74.62;52095.84;5114297;28;20630;-80
2023/09/26 08:58:07;;;;;;;11.52;7.88;;;;;;;-145.69;75.48;52062.19;5125062;27;20304;-80
2023/09/26 09:00:35;;;;;;;15.38;7.18;;;;;;;-145.69;73.32;52083.97;5134638;27;20232;-80
2023/09/26 09:03:01;;;;;;;11.37;6.47;;;;;;;-145.69;75.06;52111.69;5133071;27;20529;-80
2023/09/26 09:05:29;;;;;;;8.07;5.45;;;;;;;-145.69;72.63;52097.84;5134304;27;20198;-81
2023/09/26 09:07:55;;;;;;;9.70;4.55;;;;;;;-145.69;73.69;52103.78;5134502;27;20223;-80
2023/09/26 09:10:22;;;;;;;8.75;3.92;;;;;;;-145.69;73.50;52103.78;5134592;27;20296;-80
2023/09/26 09:12:50;;;;;;;5.57;3.78;;;;;;;-145.69;73.22;52083.97;5134565;27;20200;-80
2023/09/26 09:15:22;;;;;;;6.90;4.22;;;;;;;-145.69;70.09;52101.78;5134279;27;20234;-81
2023/09/26 09:17:51;;;;;;;6.68;4.40;;;;;;;-145.69;72.52;52085.94;5134719;27;20196;-81
2023/09/26 09:20:31;;;;;;;6.72;4.15;;;;;;;-145.69;71.11;52076.03;5134213;27;20201;-81
2023/09/26 09:23:02;;;;;;;8.30;4.10;;;;;;;-145.69;71.66;52082.00;5130875;27;20193;-81
2023/09/26 09:25:36;;;;;;;5.68;3.72;;;;;;;-145.69;70.90;52076.03;5133879;27;20204;-81
2023/09/26 09:28:05;;;;;;;8.30;3.72;;;;;;;-145.69;70.33;52064.16;5132169;27;20193;-81
2023/09/26 09:30:37;;;;;;;8.82;4.50;;;;;;;-145.69;68.45;52111.69;5128480;27;20587;-81
2023/09/26 09:33:04;;;;;;;6.47;4.03;;;;;;;-145.69;67.67;52082.00;5113765;28;20204;-81
2023/09/26 09:35:32;;;;;;;5.30;4.25;;;;;;;-145.69;68.60;52048.31;5113429;28;20594;-81
2023/09/26 09:37:58;;;;;;;6.72;3.90;;;;;;;-145.69;70.06;52060.22;5114356;28;20263;-81
2023/09/26 09:40:26;;;;;;;8.38;4.53;;;;;;;-145.69;68.38;52034.47;5113635;28;20198;-81
2023/09/26 09:42:52;;;;;;;7.20;4.72;;;;;;;-145.69;68.29;52060.22;5111819;28;20209;-81
2023/09/26 09:45:20;;;;;;;8.55;4.63;;;;;;;-145.69;67.40;52040.41;5113682;28;20201;-78
2023/09/26 09:47:48;;;;;;;9.45;4.28;;;;;;;-145.69;64.31;52078.03;5113581;28;20205;-81
2023/09/26 09:50:16;;;;;;;5.97;3.47;;;;;;;-145.69;64.09;52080.00;5113532;28;20201;-81
2023/09/26 09:52:48;;;;;;;5.25;3.45;;;;;;;-145.69;62.28;52097.84;5114036;28;20204;-78
2023/09/26 09:55:21;;;;;;;6.53;3.57;;;;;;;-145.69;64.39;52040.41;5115292;27;20617;-79
2023/09/26 09:57:50;;;;;;;5.45;2.75;;;;;;;-145.69;62.12;52026.53;5114684;28;20206;-78
2023/09/26 10:00:19;;;;;;;7.93;3.20;;;;;;;-145.69;62.88;52062.19;5132015;27;20197;-78
2023/09/26 10:02:46;;;;;;;5.68;3.05;;;;;;;-145.69;61.64;52052.28;5093033;28;20281;-78
2023/09/26 10:05:14;;;;;;;3.63;2.40;;;;;;;-145.69;65.26;52050.31;5092754;28;20208;-79
2023/09/26 10:07:42;;;;;;;3.75;2.67;;;;;;;-145.69;64.04;52048.31;5093144;28;20292;-81
2023/09/26 10:10:12;;;;;;;7.00;2.97;;;;;;;-145.69;62.96;52040.41;5092677;28;20220;-79
2023/09/26 10:12:39;;;;;;;5.65;2.72;;;;;;;-145.69;62.04;52034.47;5092499;28;20653;-78
2023/09/26 10:15:10;;;;;;;3.58;2.45;;;;;;;-145.69;63.53;52032.47;5096437;28;20676;-78
2023/09/26 10:17:36;;;;;;;4.72;2.47;;;;;;;-145.69;60.73;52036.44;5096861;28;20230;-78
2023/09/26 10:20:04;;;;;;;6.00;2.35;;;;;;;-145.69;60.46;52036.44;5097224;28;20687;-79
2023/09/26 10:22:33;;;;;;;7.88;2.65;;;;;;;-145.69;60.59;52034.47;5098288;28;20202;-79
2023/09/26 10:25:01;;;;;;;5.82;2.72;;;;;;;-145.69;59.46;52040.41;5117201;27;20200;-79
2023/09/26 10:27:42;;;;;;;7.35;2.55;;;;;;;-145.69;59.40;52024.56;5117136;28;20208;-81
2023/09/26 10:30:10;;;;;;;5.07;2.60;;;;;;;-145.69;59.29;52028.53;5096563;28;20197;-79
2023/09/26 10:32:40;;;;;;;4.37;2.40;;;;;;;-145.69;59.58;52024.56;5110140;28;20484;-81
2023/09/26 10:35:25;;;;;;;8.20;2.75;;;;;;;-145.69;56.39;52038.44;5117182;28;20197;-80
2023/09/26 10:37:55;;;;;;;4.32;1.88;;;;;;;-145.69;57.47;52042.38;5129018;27;20197;-81
2023/09/26 10:40:22;;;;;;;3.55;2.28;;;;;;;-145.69;56.63;52054.25;5136465;27;20662;-79
2023/09/26 10:42:50;;;;;;;4.22;2.13;;;;;;;-145.69;56.47;52016.66;5137453;27;20197;-79
2023/09/26 10:45:17;;;;;;;4.05;2.20;;;;;;;-145.69;54.93;52022.59;5137752;27;20201;-79
2023/09/26 10:47:44;;;;;;;3.60;2.22;;;;;;;-145.69;55.13;52012.69;5137512;27;20201;-79
2023/09/26 10:50:13;;;;;;;7.57;2.30;;;;;;;-145.69;54.61;52004.75;5137340;27;20203;-78
2023/09/26 10:52:46;;;;;;;2.50;1.88;;;;;;;-145.69;54.24;51990.91;5137245;27;20232;-79
2023/09/26 10:55:13;;;;;;;4.07;2.10;;;;;;;-145.69;54.64;51998.81;5137046;27;20200;-79
2023/09/26 10:57:40;;;;;;;5.70;2.17;;;;;;;-145.69;54.91;52012.69;5137141;27;20229;-79
2023/09/26 11:00:15;;;;;;;2.83;1.70;;;;;;;-145.69;54.10;52010.69;5136260;27;20203;-79
2023/09/26 11:02:43;;;;;;;2.42;1.83;;;;;;;-145.69;54.51;51992.88;5123555;27;20201;-79
2023/09/26 11:05:10;;;;;;;2.70;1.67;;;;;;;-145.69;53.28;52000.81;5116594;28;20197;-78
2023/09/26 11:07:38;;;;;;;6.60;1.92;;;;;;;-145.69;53.12;52002.78;5117953;27;20212;-79
2023/09/26 11:10:06;;;;;;;3.25;1.98;;;;;;;-145.69;52.98;52014.66;5137035;27;20193;-79